Time;durP1;ratioP1;P1;durP2;ratioP2;P2;SDS_P1;SDS_P2;PMS_P1;PMS_P2;Temp;Humidity;BMP_temperature;BMP_pressure;BME280_temperature;BME280_humidity;BME280_pressure;Samples;Min_cycle;Max_cycle;Signal;HPM_P1;HPM_P2
2022/08/30 00:01:30;;;;;;;4.32;2.60;;;;;;;16.39;64.69;101481.97;5010767;28;20046;-70
2022/08/30 00:03:58;;;;;;;7.22;2.70;;;;;;;16.37;64.79;101476.75;5021726;28;20465;-70
2022/08/30 00:06:26;;;;;;;3.15;2.70;;;;;;;16.32;64.88;101483.72;5030777;28;20049;-70
2022/08/30 00:08:52;;;;;;;2.92;2.53;;;;;;;16.29;65.28;101476.78;5031173;28;20120;-70
2022/08/30 00:11:23;;;;;;;3.65;2.15;;;;;;;16.36;64.90;101479.63;5030400;28;20057;-70
2022/08/30 00:13:52;;;;;;;3.83;2.40;;;;;;;16.34;64.92;101487.94;5030632;28;20041;-70
2022/08/30 00:16:20;;;;;;;4.00;2.55;;;;;;;16.29;65.11;101489.47;5017451;28;20469;-71
2022/08/30 00:18:47;;;;;;;4.65;3.17;;;;;;;16.26;65.43;101492.53;5010607;28;20566;-71
2022/08/30 00:21:14;;;;;;;6.60;3.25;;;;;;;16.23;65.39;101499.19;5007966;28;20133;-71
2022/08/30 00:23:41;;;;;;;3.25;2.50;;;;;;;16.24;65.32;101481.91;5018335;28;20136;-71
2022/08/30 00:26:08;;;;;;;5.65;2.80;;;;;;;16.23;65.61;101495.59;5033680;28;20041;-71
2022/08/30 00:28:36;;;;;;;5.32;2.88;;;;;;;16.24;65.73;101491.91;5027441;28;20136;-71
2022/08/30 00:31:04;;;;;;;4.00;3.35;;;;;;;16.23;65.39;101495.59;5020022;28;20050;-71
2022/08/30 00:33:30;;;;;;;3.97;2.92;;;;;;;16.23;65.51;101495.59;5014997;28;20430;-71
2022/08/30 00:35:57;;;;;;;4.53;2.70;;;;;;;16.24;65.49;101500.03;5016102;28;20088;-71
2022/08/30 00:38:24;;;;;;;3.70;2.83;;;;;;;16.21;65.73;101492.25;5013406;28;20404;-71
2022/08/30 00:40:51;;;;;;;4.05;3.08;;;;;;;16.19;65.66;101495.13;5024702;28;20505;-71
2022/08/30 00:43:25;;;;;;;6.90;3.60;;;;;;;16.19;65.60;101489.72;5014498;28;20125;-71
2022/08/30 00:45:54;;;;;;;4.72;2.90;;;;;;;16.13;65.90;101491.28;5018985;28;20405;-71
2022/08/30 00:48:21;;;;;;;8.25;3.38;;;;;;;16.12;65.87;101486.88;5016804;28;20060;-71
2022/08/30 00:50:53;;;;;;;5.88;2.90;;;;;;;16.13;65.71;101485.88;5032811;28;20133;-71
2022/08/30 00:53:23;;;;;;;4.63;3.15;;;;;;;16.14;65.86;101487.53;5020827;28;20137;-71
2022/08/30 00:55:52;;;;;;;4.40;3.03;;;;;;;16.10;66.00;101493.50;5029775;28;20052;-71
2022/08/30 00:58:26;;;;;;;6.90;3.50;;;;;;;16.05;65.97;101494.00;5014712;28;20472;-71
2022/08/30 01:00:55;;;;;;;6.93;3.58;;;;;;;16.02;66.23;101499.81;5023307;28;20081;-71
2022/08/30 01:03:22;;;;;;;3.38;2.83;;;;;;;16.06;66.11;101490.31;5030610;28;20128;-71
2022/08/30 01:09:35;;;;;;;3.92;3.53;;;;;;;16.05;66.34;101504.84;5005381;28;20045;-71
2022/08/30 01:12:04;;;;;;;5.68;3.72;;;;;;;16.02;66.15;101499.81;5033630;28;20511;-70
2022/08/30 01:14:32;;;;;;;6.07;3.88;;;;;;;16.01;66.29;101500.81;5032814;28;20063;-70
2022/08/30 01:17:01;;;;;;;5.25;3.58;;;;;;;16.07;66.15;101508.22;5024082;28;20096;-70
2022/08/30 01:19:34;;;;;;;5.75;3.35;;;;;;;16.08;66.02;101507.19;5030980;28;20053;-71
2022/08/30 01:22:36;;;;;;;4.03;3.38;;;;;;;16.17;65.81;101503.44;5029610;28;20064;-70
2022/08/30 01:25:04;;;;;;;;;;;;;;;16.07;66.18;101507.38;5016417;28;20402;-70
2022/08/30 01:27:37;;;;;;;8.52;3.28;;;;;;;16.04;66.30;101500.47;5026087;28;20301;-70
2022/08/30 01:30:05;;;;;;;5.13;3.70;;;;;;;16.03;66.39;101503.34;5027080;28;20076;-70
2022/08/30 01:32:38;;;;;;;4.10;3.67;;;;;;;16.04;66.55;101503.16;5021488;28;20553;-70
2022/08/30 01:35:06;;;;;;;4.28;3.38;;;;;;;16.08;66.40;101509.91;5021849;28;20117;-70
2022/08/30 01:37:35;;;;;;;4.63;3.70;;;;;;;16.07;66.32;101499.28;5030023;28;20493;-70
2022/08/30 01:40:02;;;;;;;5.95;3.72;;;;;;;16.05;66.46;101509.41;5013431;28;20132;-70
2022/08/30 01:42:29;;;;;;;7.05;4.22;;;;;;;15.98;66.61;101503.03;5012484;28;20050;-71
2022/08/30 01:44:56;;;;;;;7.47;3.50;;;;;;;16.36;65.36;101499.41;5013236;28;20073;-71
2022/08/30 01:47:22;;;;;;;4.93;4.20;;;;;;;16.32;65.56;101508.09;5013013;28;20077;-71
2022/08/30 01:49:49;;;;;;;12.68;4.35;;;;;;;16.29;65.63;101500.31;5015239;28;20069;-71
2022/08/30 01:52:16;;;;;;;4.95;4.45;;;;;;;16.14;65.65;101503.78;5015401;28;20084;-71
2022/08/30 01:54:44;;;;;;;5.45;4.38;;;;;;;15.95;66.71;101498.81;5030512;28;20055;-71
2022/08/30 01:57:15;;;;;;;5.55;4.07;;;;;;;16.00;66.64;101501.00;5021610;28;20108;-71
2022/08/30 01:59:46;;;;;;;5.55;4.20;;;;;;;15.93;66.84;101495.44;5027024;28;20059;-71
2022/08/30 02:02:19;;;;;;;8.40;4.85;;;;;;;15.92;66.90;101500.03;5015746;28;20053;-71
2022/08/30 02:04:46;;;;;;;6.95;5.30;;;;;;;15.88;67.19;101498.69;5032021;28;20080;-71
2022/08/30 02:07:13;;;;;;;5.95;5.15;;;;;;;15.86;67.20;101499.88;5033115;28;20069;-71
2022/08/30 02:09:43;;;;;;;5.97;5.32;;;;;;;15.85;67.41;101496.34;5017011;28;20069;-71
2022/08/30 02:12:11;;;;;;;7.22;4.93;;;;;;;15.87;67.09;101496.16;4995977;28;20449;-71
2022/08/30 02:14:38;;;;;;;5.95;5.20;;;;;;;15.95;66.90;101493.38;5028673;28;20069;-71
2022/08/30 02:17:07;;;;;;;5.40;4.72;;;;;;;15.91;67.03;101492.06;5031805;28;20081;-71
2022/08/30 02:19:34;;;;;;;5.65;5.05;;;;;;;15.92;67.01;101493.78;5024317;28;20137;-71
2022/08/30 02:22:00;;;;;;;7.82;4.38;;;;;;;15.84;67.29;101486.50;5012656;28;20046;-71
2022/08/30 02:24:27;;;;;;;7.60;5.00;;;;;;;15.84;67.47;101488.38;5012305;28;20065;-71
2022/08/30 02:26:53;;;;;;;6.95;5.00;;;;;;;15.93;67.16;101490.03;5012078;28;20057;-71
2022/08/30 02:29:21;;;;;;;7.00;5.15;;;;;;;15.93;67.17;101484.63;5013705;28;20046;-71
2022/08/30 02:31:48;;;;;;;7.50;4.82;;;;;;;15.93;67.03;101479.22;5020748;28;20137;-71
2022/08/30 02:34:16;;;;;;;5.50;4.45;;;;;;;15.88;67.12;101478.88;5018743;28;20132;-71
2022/08/30 02:36:43;;;;;;;8.13;5.95;;;;;;;15.95;66.99;101478.03;5029916;28;20399;-71
2022/08/30 02:39:11;;;;;;;7.40;4.90;;;;;;;15.97;67.06;101483.25;5013446;28;20129;-71
2022/08/30 02:41:39;;;;;;;6.97;5.30;;;;;;;15.91;67.15;101482.06;5020453;28;20088;-71
2022/08/30 02:44:07;;;;;;;6.95;5.65;;;;;;;15.94;66.83;101481.72;5024524;28;20121;-70
2022/08/30 02:46:34;;;;;;;7.28;5.38;;;;;;;15.91;67.20;101481.25;5031731;28;20132;-70
2022/08/30 02:49:01;;;;;;;8.98;5.53;;;;;;;15.92;66.89;101496.47;4994185;28;20061;-70
2022/08/30 02:51:48;;;;;;;10.65;5.60;;;;;;;15.86;67.24;101494.47;5018008;28;20050;-70
2022/08/30 02:54:18;;;;;;;8.23;5.50;;;;;;;15.86;67.21;101489.91;5025968;28;20077;-70
2022/08/30 02:56:49;;;;;;;8.15;6.13;;;;;;;15.77;67.52;101484.69;5009893;28;20073;-70
2022/08/30 02:59:16;;;;;;;7.38;6.30;;;;;;;15.80;67.45;101484.34;5022782;28;20077;-70
2022/08/30 03:01:43;;;;;;;7.35;6.05;;;;;;;15.82;66.98;101479.63;5023174;28;20037;-70
2022/08/30 03:04:10;;;;;;;10.18;5.70;;;;;;;15.84;66.86;101489.22;5024509;28;20482;-70
2022/08/30 03:06:37;;;;;;;6.53;5.85;;;;;;;15.81;67.06;101486.91;5019311;28;20053;-70
2022/08/30 03:09:04;;;;;;;9.63;5.80;;;;;;;15.84;67.26;101486.50;5024567;28;20042;-70
2022/08/30 03:11:31;;;;;;;7.97;6.60;;;;;;;15.81;67.10;101486.91;5020440;28;20061;-70
2022/08/30 03:13:58;;;;;;;8.00;6.20;;;;;;;15.77;67.19;101492.81;5027117;28;20128;-70
2022/08/30 03:16:24;;;;;;;10.70;7.10;;;;;;;15.74;67.29;101491.28;5010791;28;20461;-70
2022/08/30 03:18:51;;;;;;;11.43;8.95;;;;;;;15.78;67.03;101483.66;5010637;28;20052;-70
2022/08/30 03:21:18;;;;;;;9.73;7.43;;;;;;;15.75;67.01;101487.59;5013021;28;20480;-70
2022/08/30 03:23:44;;;;;;;8.45;7.50;;;;;;;15.70;67.28;101492.66;5023726;28;20075;-70
2022/08/30 03:26:13;;;;;;;10.30;8.05;;;;;;;15.63;67.39;101489.81;5016607;28;20077;-70
2022/08/30 03:28:41;;;;;;;11.70;7.45;;;;;;;15.60;67.49;101495.53;5011183;28;20061;-70
2022/08/30 03:31:08;;;;;;;9.80;7.47;;;;;;;15.67;67.09;101490.31;5013390;28;20431;-71
2022/08/30 03:33:36;;;;;;;11.23;7.20;;;;;;;15.67;67.07;101491.19;5026607;28;20124;-70
2022/08/30 03:36:02;;;;;;;9.93;7.35;;;;;;;15.67;67.25;101491.19;5021449;28;20053;-70
2022/08/30 03:38:29;;;;;;;9.55;7.15;;;;;;;15.67;66.97;101495.72;5018861;28;20476;-71
2022/08/30 03:40:56;;;;;;;8.38;7.05;;;;;;;15.67;67.10;101490.31;5021286;28;20042;-71
2022/08/30 03:43:24;;;;;;;9.35;7.15;;;;;;;15.62;67.20;101498.94;5019155;28;20053;-71
2022/08/30 03:45:51;;;;;;;9.73;7.82;;;;;;;15.56;67.44;101499.63;5030583;28;20099;-71
2022/08/30 03:48:17;;;;;;;9.52;7.85;;;;;;;15.60;67.36;101502.81;5019301;28;20482;-71
2022/08/30 03:50:44;;;;;;;13.30;9.45;;;;;;;15.58;67.30;101508.41;5010939;28;20061;-71
2022/08/30 03:53:11;;;;;;;9.15;7.43;;;;;;;15.60;67.56;101500.94;5010053;28;20054;-71
2022/08/30 03:55:38;;;;;;;10.73;7.10;;;;;;;15.61;67.13;101508.06;5013907;28;20080;-71
2022/08/30 03:58:04;;;;;;;8.57;6.70;;;;;;;15.60;67.16;101511.78;5030070;28;20129;-71
2022/08/30 04:00:31;;;;;;;9.93;6.45;;;;;;;15.55;67.39;101514.16;5034785;28;20063;-70
2022/08/30 04:02:58;;;;;;;12.02;5.90;;;;;;;15.57;67.28;101509.44;5034244;28;20497;-70
2022/08/30 04:05:26;;;;;;;8.10;6.70;;;;;;;15.56;67.28;101506.88;5033314;28;20171;-70
2022/08/30 04:07:52;;;;;;;9.95;7.07;;;;;;;15.58;67.23;101512.97;5029760;28;20133;-71
2022/08/30 04:10:20;;;;;;;10.88;6.95;;;;;;;15.55;67.34;101513.31;5017423;28;20468;-70
2022/08/30 04:12:48;;;;;;;11.05;8.18;;;;;;;15.56;67.27;101510.44;5014622;28;20165;-71
2022/08/30 04:15:17;;;;;;;9.13;6.82;;;;;;;15.63;67.04;101507.91;5015559;28;20049;-71
2022/08/30 04:17:44;;;;;;;9.90;6.88;;;;;;;15.55;67.29;101507.91;5013850;28;20134;-71
2022/08/30 04:20:10;;;;;;;13.52;6.82;;;;;;;15.58;67.20;101510.28;5014726;28;20160;-71
2022/08/30 04:22:37;;;;;;;9.73;6.95;;;;;;;15.50;67.21;101516.56;5014405;28;20070;-71
2022/08/30 04:25:05;;;;;;;8.00;6.25;;;;;;;15.51;67.20;101518.25;5020325;28;20105;-71
2022/08/30 04:27:31;;;;;;;8.57;6.57;;;;;;;15.59;66.90;101517.38;5032294;28;20076;-71
2022/08/30 04:29:58;;;;;;;13.93;6.75;;;;;;;15.54;67.21;101517.06;5034405;28;20069;-71
2022/08/30 04:32:25;;;;;;;10.35;7.63;;;;;;;15.49;67.37;101517.56;5032513;28;20129;-72
2022/08/30 04:34:57;;;;;;;8.23;6.55;;;;;;;15.46;67.61;101518.75;5033814;28;20056;-71
2022/08/30 04:37:24;;;;;;;9.05;7.05;;;;;;;15.51;67.22;101520.94;5032945;28;20076;-71
2022/08/30 04:40:02;;;;;;;10.27;6.75;;;;;;;15.48;67.37;101526.69;5033759;28;20100;-71
2022/08/30 04:42:31;;;;;;;11.75;6.63;;;;;;;15.43;67.58;101527.22;5023149;28;20104;-70
2022/08/30 04:45:02;;;;;;;12.30;7.25;;;;;;;15.50;67.20;101532.78;5013903;28;20052;-71
2022/08/30 04:47:28;;;;;;;8.13;6.30;;;;;;;15.45;67.49;101529.75;5014320;28;20105;-71
2022/08/30 04:49:55;;;;;;;9.43;7.18;;;;;;;15.47;67.38;101527.72;5013744;28;20128;-71
2022/08/30 04:52:21;;;;;;;14.75;7.70;;;;;;;15.52;67.46;101533.44;5013151;28;20145;-71
2022/08/30 04:54:56;;;;;;;14.02;7.90;;;;;;;15.48;67.78;101529.41;5022991;28;20045;-71
2022/08/30 04:57:23;;;;;;;10.05;7.90;;;;;;;15.49;67.79;101533.78;5025513;28;20061;-71
2022/08/30 04:59:50;;;;;;;9.95;7.47;;;;;;;15.56;67.76;101534.78;5013981;28;20042;-71
2022/08/30 05:02:17;;;;;;;10.77;7.75;;;;;;;15.56;68.00;101534.78;5025846;28;20160;-71
2022/08/30 05:07:30;;;;;;;10.15;7.85;;;;;;;15.68;67.39;101538.00;5033813;28;20084;-71
2022/08/30 05:09:57;;;;;;;11.00;6.85;;;;;;;15.78;66.91;101535.06;5026765;28;20133;-71
2022/08/30 05:12:24;;;;;;;13.98;7.43;;;;;;;15.73;67.14;101541.00;5014558;28;20128;-71
2022/08/30 05:14:50;;;;;;;12.68;8.02;;;;;;;15.77;66.93;101536.94;5021995;28;20556;-71
2022/08/30 05:17:17;;;;;;;9.20;7.85;;;;;;;15.79;66.85;101537.63;5026836;28;20486;-71
2022/08/30 05:19:44;;;;;;;10.88;8.25;;;;;;;15.87;66.57;101548.41;5012980;28;20128;-71
2022/08/30 05:22:11;;;;;;;10.57;7.78;;;;;;;15.85;66.89;101544.19;5021649;28;20172;-71
2022/08/30 05:24:37;;;;;;;9.85;8.05;;;;;;;15.83;66.82;101552.47;5015406;28;20073;-71
2022/08/30 05:27:04;;;;;;;9.05;8.15;;;;;;;15.80;66.85;101547.41;5021242;28;20405;-71
2022/08/30 05:29:31;;;;;;;9.02;8.13;;;;;;;15.76;67.02;101553.34;5026193;28;20129;-71
2022/08/30 05:31:57;;;;;;;13.07;7.63;;;;;;;15.70;67.30;101555.72;5012282;28;20125;-71
2022/08/30 05:34:25;;;;;;;10.73;7.95;;;;;;;15.75;67.61;101552.53;5013388;28;20494;-71
2022/08/30 05:36:52;;;;;;;9.32;7.57;;;;;;;15.73;67.72;101553.69;5013340;28;20085;-71
2022/08/30 05:39:18;;;;;;;13.00;7.47;;;;;;;15.80;67.31;101550.13;5029618;28;20060;-71
2022/08/30 05:41:48;;;;;;;11.02;7.22;;;;;;;15.79;67.59;101551.16;5033558;28;20535;-71
2022/08/30 05:44:15;;;;;;;15.73;7.32;;;;;;;15.93;67.05;101565.81;5034605;28;20079;-71
2022/08/30 05:46:44;;;;;;;12.10;7.28;;;;;;;16.04;66.75;101556.47;5004801;28;20077;-72
2022/08/30 05:49:11;;;;;;;11.27;7.35;;;;;;;16.04;67.14;101557.28;5026194;28;21438;-72
2022/08/30 05:51:38;;;;;;;9.75;8.05;;;;;;;16.11;67.29;101560.16;5032583;28;20084;-72
2022/08/30 05:54:10;;;;;;;17.38;7.68;;;;;;;16.28;66.60;101569.03;5012690;28;20045;-72
2022/08/30 05:56:38;;;;;;;12.05;7.57;;;;;;;16.31;66.72;101566.81;5012573;28;20092;-72
2022/08/30 05:59:06;;;;;;;9.63;7.25;;;;;;;16.41;66.30;101563.88;4994921;28;20460;-72
2022/08/30 06:01:39;;;;;;;13.05;7.95;;;;;;;16.45;66.18;101570.63;5019140;28;20129;-72
2022/08/30 06:04:08;;;;;;;8.77;7.68;;;;;;;16.48;65.84;101564.84;5009309;28;20121;-72
2022/08/30 06:06:37;;;;;;;11.68;6.72;;;;;;;16.60;65.85;101568.03;5012224;28;20493;-72
2022/08/30 06:09:05;;;;;;;15.98;7.78;;;;;;;16.64;65.40;101567.50;5011780;28;20042;-72
2022/08/30 06:11:32;;;;;;;15.60;8.05;;;;;;;16.67;65.20;101571.69;5012616;28;20128;-72
2022/08/30 06:13:59;;;;;;;9.85;7.43;;;;;;;16.64;65.31;101566.63;5012337;28;20057;-72
2022/08/30 06:16:27;;;;;;;8.88;7.07;;;;;;;16.66;64.92;101568.16;5011417;28;20465;-72
2022/08/30 06:18:56;;;;;;;15.52;7.68;;;;;;;16.55;65.52;101565.03;5012091;28;20054;-72
2022/08/30 06:21:32;;;;;;;12.00;7.25;;;;;;;16.63;65.37;101571.22;5012190;28;20045;-72
2022/08/30 06:24:00;;;;;;;9.68;7.03;;;;;;;16.73;65.46;101570.16;5011550;28;20125;-72
2022/08/30 06:26:27;;;;;;;12.70;9.07;;;;;;;16.81;64.85;101564.66;5012520;28;20548;-72
2022/08/30 06:28:56;;;;;;;9.25;7.18;;;;;;;16.94;64.44;101567.59;5011917;28;20482;-72
2022/08/30 06:31:24;;;;;;;13.00;8.23;;;;;;;17.08;64.23;101569.53;5013777;28;20134;-72
2022/08/30 06:33:51;;;;;;;12.30;8.38;;;;;;;17.16;64.04;101575.88;5012863;28;20401;-72
2022/08/30 06:36:21;;;;;;;13.77;8.43;;;;;;;17.07;64.07;101575.97;5012400;28;20072;-72
2022/08/30 06:38:53;;;;;;;13.48;8.93;;;;;;;17.19;63.95;101579.06;5012351;28;20049;-72
2022/08/30 06:41:23;;;;;;;11.48;7.63;;;;;;;17.32;63.55;101584.72;5012645;28;20080;-72
2022/08/30 06:43:50;;;;;;;11.43;6.80;;;;;;;17.45;63.27;101581.41;5012724;28;20062;-72
2022/08/30 06:46:29;;;;;;;10.77;7.30;;;;;;;17.59;62.71;101586.03;5011893;28;20053;-72
2022/08/30 06:48:56;;;;;;;11.70;6.28;;;;;;;17.72;62.17;101574.53;5012318;28;20046;-73
2022/08/30 06:51:29;;;;;;;12.85;6.57;;;;;;;17.74;62.15;101577.03;5013420;28;20129;-72
2022/08/30 06:53:56;;;;;;;11.75;6.60;;;;;;;17.97;61.57;101569.66;5012435;28;20452;-73
2022/08/30 06:56:24;;;;;;;13.85;6.00;;;;;;;18.19;60.73;101583.31;5012350;28;20125;-72
2022/08/30 06:58:53;;;;;;;10.07;8.00;;;;;;;18.24;60.33;101583.59;4995279;28;20065;-72
2022/08/30 07:01:22;;;;;;;7.97;6.50;;;;;;;18.21;60.23;101575.84;5012734;28;20152;-72
2022/08/30 07:03:49;;;;;;;7.88;6.25;;;;;;;18.32;59.49;101586.19;5008706;28;20085;-72
2022/08/30 07:06:17;;;;;;;12.65;6.82;;;;;;;18.29;59.65;101589.28;5006866;28;20468;-72
2022/08/30 07:08:44;;;;;;;12.70;7.45;;;;;;;18.37;59.27;101572.88;5011666;28;20057;-73
2022/08/30 07:11:11;;;;;;;8.60;6.47;;;;;;;18.55;58.85;101577.91;5011865;28;20081;-72
2022/08/30 07:13:38;;;;;;;9.50;6.45;;;;;;;18.74;58.35;101579.97;5011501;28;20153;-72
2022/08/30 07:16:11;;;;;;;9.27;6.57;;;;;;;18.58;58.64;101580.22;5011988;28;20109;-72
2022/08/30 07:18:54;;;;;;;12.48;6.70;;;;;;;18.79;58.45;101582.09;5010009;28;20060;-73
2022/08/30 07:21:27;;;;;;;9.88;6.32;;;;;;;18.86;58.25;101591.19;5012502;28;20117;-73
2022/08/30 07:23:57;;;;;;;8.70;6.10;;;;;;;18.84;58.13;101590.53;5012187;28;20129;-73
2022/08/30 07:26:27;;;;;;;9.32;6.05;;;;;;;18.63;58.43;101582.38;5011495;28;20077;-72
2022/08/30 07:28:55;;;;;;;;;;;;;;;18.41;59.04;101581.47;5001405;28;20052;-73
2022/08/30 07:31:22;;;;;;;10.45;6.80;;;;;;;18.28;59.47;101591.19;5012319;28;19921;-72
2022/08/30 07:33:49;;;;;;;11.50;6.55;;;;;;;18.30;59.57;101593.69;5007737;28;20129;-72
2022/08/30 07:36:16;;;;;;;20.92;6.85;;;;;;;18.36;59.67;101594.81;5010981;28;20077;-72
2022/08/30 07:38:45;;;;;;;9.07;7.45;;;;;;;18.30;59.79;101593.69;5010841;28;20128;-72
2022/08/30 07:41:18;;;;;;;15.63;8.35;;;;;;;18.27;59.86;101596.78;5010916;28;20141;-72
2022/08/30 07:43:45;;;;;;;12.77;9.18;;;;;;;18.44;59.17;101595.53;5008859;28;20524;-72
2022/08/30 07:46:12;;;;;;;9.25;7.55;;;;;;;18.57;59.10;101596.72;5007079;28;20077;-72
2022/08/30 07:48:39;;;;;;;14.63;7.82;;;;;;;18.76;58.56;101596.09;5009874;28;20450;-72
2022/08/30 07:51:18;;;;;;;12.90;8.52;;;;;;;18.48;58.56;101601.41;5010479;28;20046;-73
2022/08/30 07:53:45;;;;;;;9.38;8.15;;;;;;;18.44;58.39;101614.53;5011242;28;20061;-73
2022/08/30 07:56:12;;;;;;;13.82;8.85;;;;;;;18.52;58.60;101605.47;5011000;28;20564;-73
2022/08/30 07:58:39;;;;;;;9.85;8.82;;;;;;;18.46;58.65;101604.34;5010741;28;20510;-73
2022/08/30 08:01:07;;;;;;;11.50;8.20;;;;;;;18.83;57.85;101607.06;5010668;28;20045;-73
2022/08/30 08:03:35;;;;;;;12.90;9.02;;;;;;;19.07;56.66;101603.97;5010163;28;20041;-73
2022/08/30 08:06:04;;;;;;;12.27;7.70;;;;;;;18.90;56.98;101605.25;5010686;28;20069;-73
2022/08/30 08:08:31;;;;;;;10.80;6.68;;;;;;;19.20;55.91;101609.50;5005407;28;20042;-73
2022/08/30 08:11:08;;;;;;;19.67;7.25;;;;;;;19.80;54.18;101604.56;5011300;28;20068;-73
2022/08/30 08:13:36;;;;;;;8.38;7.05;;;;;;;20.16;53.27;101607.06;5011199;28;20045;-73
2022/08/30 08:16:24;;;;;;;10.98;7.38;;;;;;;20.04;54.17;101608.69;5010506;28;20050;-74
2022/08/30 08:18:52;;;;;;;7.68;6.88;;;;;;;19.36;55.31;101607.56;5011181;28;20441;-74
2022/08/30 08:21:20;;;;;;;8.65;7.28;;;;;;;19.02;56.57;101611.84;5000498;28;20096;-73
2022/08/30 08:23:47;;;;;;;9.35;6.93;;;;;;;18.50;57.97;101612.94;5011068;28;20396;-73
2022/08/30 08:26:14;;;;;;;8.32;6.55;;;;;;;18.81;57.16;101607.22;5011225;28;20101;-73
2022/08/30 08:28:41;;;;;;;7.28;6.03;;;;;;;18.70;56.83;101615.91;5009996;28;20081;-73
2022/08/30 08:31:22;;;;;;;11.00;7.30;;;;;;;18.29;58.70;101616.47;5010420;28;20056;-74
2022/08/30 08:33:59;;;;;;;11.30;7.18;;;;;;;18.38;58.73;101618.03;5009704;28;20052;-72
2022/08/30 08:36:29;;;;;;;8.10;6.50;;;;;;;17.84;60.42;101621.88;5009892;28;20042;-73
2022/08/30 08:38:55;;;;;;;9.10;7.82;;;;;;;17.76;60.52;101629.28;5007599;28;20133;-73
2022/08/30 08:41:50;;;;;;;9.00;7.07;;;;;;;17.60;60.78;101636.53;5011019;28;20078;-71
2022/08/30 08:44:34;;;;;;;7.63;6.63;;;;;;;17.48;60.93;101632.59;5001293;28;20129;-72
2022/08/30 08:47:16;;;;;;;10.10;6.22;;;;;;;17.71;59.52;101631.69;5014055;28;20049;-72
2022/08/30 08:49:46;;;;;;;5.95;5.35;;;;;;;17.59;59.98;101628.59;5014545;28;20050;-72
2022/08/30 08:55:13;;;;;;;8.13;4.70;;;;;;;17.43;60.77;101635.00;5011250;28;20128;-72
2022/08/30 08:57:40;;;;;;;12.18;5.05;;;;;;;17.64;59.83;101636.16;5013312;28;20470;-71
2022/08/30 09:00:10;;;;;;;5.97;4.63;;;;;;;18.10;58.41;101636.88;5014176;28;20049;-72
2022/08/30 09:02:55;;;;;;;8.07;4.35;;;;;;;18.28;57.33;101641.94;5014003;28;20073;-73
2022/08/30 09:05:24;;;;;;;5.65;3.33;;;;;;;18.11;56.79;101638.56;5013498;28;20164;-73
2022/08/30 09:07:58;;;;;;;4.20;3.55;;;;;;;17.96;57.09;101645.84;5005773;28;20141;-73
2022/08/30 09:10:25;;;;;;;6.95;4.22;;;;;;;18.30;56.61;101642.59;5013665;28;20085;-73
2022/08/30 09:13:12;;;;;;;9.70;3.63;;;;;;;18.66;55.74;101631.75;5012953;28;20052;-73
2022/08/30 09:15:39;;;;;;;6.53;4.28;;;;;;;18.77;55.10;101635.84;5013111;28;20050;-73
2022/08/30 09:18:10;;;;;;;7.15;3.25;;;;;;;18.34;55.98;101633.00;5013437;28;20042;-73
2022/08/30 09:20:50;;;;;;;6.40;3.65;;;;;;;18.68;55.11;101639.69;5013242;28;20093;-73
2022/08/30 09:23:19;;;;;;;4.88;2.95;;;;;;;18.85;54.78;101641.16;5008790;28;20046;-73
2022/08/30 09:25:58;;;;;;;4.03;2.80;;;;;;;18.46;55.66;101645.09;5013216;28;20497;-73
2022/08/30 09:28:27;;;;;;;6.93;3.17;;;;;;;18.36;55.92;101652.69;5013759;28;20129;-73
2022/08/30 09:31:07;;;;;;;7.57;3.60;;;;;;;18.45;56.48;101646.13;5013349;28;20042;-72
2022/08/30 09:33:37;;;;;;;6.15;3.33;;;;;;;18.64;56.03;101649.28;5013684;28;20037;-73
2022/08/30 09:36:50;;;;;;;5.10;3.13;;;;;;;18.28;57.08;101647.38;5013795;28;20469;-73
2022/08/30 09:39:30;;;;;;;4.65;2.97;;;;;;;18.16;57.37;101652.41;5009299;28;20456;-73
2022/08/30 09:42:19;;;;;;;7.80;2.97;;;;;;;18.39;56.99;101659.63;5013088;28;20474;-73
2022/08/30 09:44:46;;;;;;;3.75;2.40;;;;;;;18.04;57.63;101648.47;5012655;28;20077;-73
2022/08/30 09:47:30;;;;;;;8.60;2.40;;;;;;;18.31;56.91;101655.16;5012923;28;20065;-73
2022/08/30 09:50:19;;;;;;;5.82;2.08;;;;;;;18.28;56.68;101650.94;5012139;28;20056;-73
2022/08/30 09:53:13;;;;;;;5.82;2.00;;;;;;;18.16;56.88;101648.88;5012077;28;20061;-73
2022/08/30 09:55:55;;;;;;;3.45;1.85;;;;;;;18.20;56.35;101652.88;5012297;28;20045;-73
2022/08/30 09:59:02;;;;;;;7.05;2.38;;;;;;;18.24;56.46;101654.22;5012960;28;20078;-71
2022/08/30 10:01:33;;;;;;;10.13;1.60;;;;;;;18.07;56.28;101654.38;5011736;28;20140;-72
2022/08/30 10:04:03;;;;;;;;;;;;;;;18.32;55.78;101651.41;5013231;28;20037;-73
2022/08/30 10:06:51;;;;;;;4.80;1.42;;;;;;;18.33;55.96;101653.06;5013561;28;20371;-72
2022/08/30 10:09:40;;;;;;;5.03;1.77;;;;;;;18.61;55.19;101645.06;5012049;28;20080;-73
2022/08/30 10:12:28;;;;;;;8.60;1.83;;;;;;;18.89;54.37;101653.31;5012651;28;20125;-72
2022/08/30 10:15:28;;;;;;;2.17;1.40;;;;;;;19.09;53.54;101652.72;5012412;28;20128;-72
2022/08/30 10:18:10;;;;;;;2.70;1.27;;;;;;;19.12;52.90;101650.44;5012133;28;20049;-73
2022/08/30 10:20:41;;;;;;;;;;;;;;;19.08;53.01;101654.59;5012653;28;20052;-73
2022/08/30 10:23:16;;;;;;;4.25;1.33;;;;;;;18.82;53.71;101646.97;5012706;28;19957;-73
2022/08/30 10:25:54;;;;;;;2.80;1.45;;;;;;;18.91;53.50;101651.25;5012722;28;20050;-73
2022/08/30 10:28:30;;;;;;;3.03;1.40;;;;;;;19.34;52.39;101645.00;5012311;28;20506;-73
2022/08/30 10:31:09;;;;;;;2.13;1.40;;;;;;;19.57;51.87;101642.06;5012354;28;20133;-73
2022/08/30 10:33:46;;;;;;;3.78;1.35;;;;;;;19.54;51.87;101645.16;5012667;28;20048;-73
2022/08/30 10:36:14;;;;;;;5.20;1.63;;;;;;;19.69;51.07;101644.06;5011207;28;20038;-72
2022/08/30 10:38:46;;;;;;;2.65;1.25;;;;;;;19.83;50.14;101644.16;5013255;28;20425;-72
2022/08/30 10:41:31;;;;;;;5.22;1.20;;;;;;;20.10;49.34;101645.16;5012919;28;20070;-72
2022/08/30 10:44:25;;;;;;;4.68;2.17;;;;;;;19.98;48.38;101646.78;5008290;28;20116;-73
2022/08/30 10:47:30;;;;;;;4.13;1.10;;;;;;;20.00;48.63;101633.78;5011676;28;20121;-73
2022/08/30 10:50:13;;;;;;;5.85;1.42;;;;;;;20.34;47.92;101633.75;5012446;28;20041;-72
2022/08/30 10:53:09;;;;;;;6.22;1.52;;;;;;;20.77;47.13;101630.78;5012212;28;20073;-73
2022/08/30 10:55:44;;;;;;;2.22;1.30;;;;;;;20.83;46.21;101638.13;5005450;28;20070;-73
2022/08/30 10:58:17;;;;;;;12.70;1.00;;;;;;;21.20;45.79;101637.81;5010612;28;20084;-72
2022/08/30 11:01:09;;;;;;;1.38;1.20;;;;;;;21.60;44.47;101638.66;5010664;28;20077;-72
2022/08/30 11:03:59;;;;;;;1.75;1.38;;;;;;;22.04;43.68;101637.13;5010454;28;20137;-73
2022/08/30 11:06:33;;;;;;;1.35;1.00;;;;;;;22.03;42.73;101641.75;5011637;28;20050;-72
2022/08/30 11:09:21;;;;;;;1.92;1.00;;;;;;;22.11;42.26;101637.94;5027536;28;20046;-73
2022/08/30 11:12:21;;;;;;;1.67;1.08;;;;;;;22.29;41.88;101637.25;5030144;28;20046;-73
2022/08/30 11:14:49;;;;;;;;;;;;;;;21.72;41.65;101633.38;5022225;28;20369;-72
2022/08/30 11:17:34;;;;;;;2.40;1.73;;;;;;;22.21;41.46;101637.50;5031638;28;20253;-73
2022/08/30 11:20:04;;;;;;;2.58;1.08;;;;;;;22.03;41.29;101630.81;5030364;28;20041;-73
2022/08/30 11:22:35;;;;;;;2.40;1.45;;;;;;;22.03;42.08;101629.97;5031013;28;20045;-73
2022/08/30 11:25:12;;;;;;;4.10;1.55;;;;;;;22.35;41.36;101632.81;5030001;28;20160;-72
2022/08/30 11:27:39;;;;;;;4.65;1.48;;;;;;;23.26;40.08;101635.25;5026533;28;20064;-72
2022/08/30 11:30:24;;;;;;;1.95;1.10;;;;;;;24.00;38.03;101619.84;5030659;28;20129;-73
2022/08/30 11:33:03;;;;;;;6.80;1.10;;;;;;;24.84;36.63;101614.56;5030558;28;20041;-72
2022/08/30 11:35:51;;;;;;;1.23;0.98;;;;;;;25.16;35.28;101606.88;5031530;28;20091;-73
2022/08/30 11:38:18;;;;;;;1.08;0.95;;;;;;;24.91;35.89;101616.13;5026378;28;20056;-72
2022/08/30 11:40:53;;;;;;;3.78;1.35;;;;;;;24.62;35.15;101612.34;5043722;28;20570;-73
2022/08/30 11:43:35;;;;;;;4.28;1.25;;;;;;;24.66;35.80;101601.72;5022605;28;20141;-73
2022/08/30 11:46:19;;;;;;;3.55;1.30;;;;;;;24.28;36.49;101604.75;5010883;28;20452;-73
2022/08/30 11:48:51;;;;;;;2.08;1.08;;;;;;;24.41;35.40;101591.75;5021823;28;20049;-73
2022/08/30 11:51:22;;;;;;;3.10;1.10;;;;;;;24.19;35.70;101594.09;5013448;28;20433;-73
2022/08/30 11:53:59;;;;;;;1.80;0.93;;;;;;;24.73;34.91;101583.25;5031035;28;20041;-72